createdAt,value
2019-02-25T00:01:42.699Z,101470.72
2019-02-25T00:04:12.109Z,101473.45
2019-02-25T00:06:41.415Z,101467.48
2019-02-25T00:09:10.935Z,101469.09
2019-02-25T00:11:40.270Z,101472.61
2019-02-25T00:14:09.569Z,101470.87
2019-02-25T00:16:38.870Z,101466.50
2019-02-25T00:19:08.175Z,101465.72
2019-02-25T00:21:37.483Z,101463.86
2019-02-25T00:24:06.800Z,101468.26
2019-02-25T00:26:36.132Z,101466.66
2019-02-25T00:29:05.451Z,101466.56
2019-02-25T00:31:34.766Z,101462.12
2019-02-25T00:34:04.066Z,101465.18
2019-02-25T00:36:33.375Z,101462.34
2019-02-25T00:39:03.768Z,101465.01
2019-02-25T00:41:33.067Z,101468.13
2019-02-25T00:44:02.481Z,101463.63
2019-02-25T00:46:31.785Z,101465.70
2019-02-25T00:49:01.093Z,101460.23
2019-02-25T00:51:30.382Z,101458.94
2019-02-25T00:53:59.695Z,101456.01
2019-02-25T00:56:29.002Z,101454.98
2019-02-25T00:58:58.422Z,101456.65
2019-02-25T01:01:27.742Z,101452.30
2019-02-25T01:03:57.041Z,101450.67
2019-02-25T01:06:26.544Z,101452.88
2019-02-25T01:08:56.125Z,101449.91
2019-02-25T01:11:25.542Z,101449.86
2019-02-25T01:13:54.864Z,101453.88
2019-02-25T01:16:24.173Z,101456.27
2019-02-25T01:18:53.486Z,101448.48
2019-02-25T01:21:23.118Z,101451.15
2019-02-25T01:23:52.421Z,101450.03
2019-02-25T01:26:21.745Z,101450.05
2019-02-25T01:28:51.045Z,101448.00
2019-02-25T01:31:20.357Z,101447.72
2019-02-25T01:33:49.762Z,101436.96
2019-02-25T01:36:19.071Z,101437.25
2019-02-25T01:38:48.369Z,101440.33
2019-02-25T01:41:17.702Z,101434.10
2019-02-25T01:43:47.010Z,101435.20
2019-02-25T01:46:16.336Z,101432.00
2019-02-25T01:48:52.991Z,101432.12
2019-02-25T01:51:22.341Z,101430.05
2019-02-25T01:53:51.622Z,101423.66
2019-02-25T01:56:20.917Z,101423.56
2019-02-25T01:58:50.226Z,101424.92
2019-02-25T02:01:19.535Z,101419.84
2019-02-25T02:03:48.869Z,101418.81
2019-02-25T02:06:18.265Z,101420.57
2019-02-25T02:08:47.565Z,101415.23
2019-02-25T02:11:16.862Z,101424.47
2019-02-25T02:13:46.171Z,101412.67
2019-02-25T02:16:15.483Z,101411.43
2019-02-25T02:18:44.785Z,101411.64
2019-02-25T02:21:14.110Z,101416.42
2019-02-25T02:23:43.418Z,101421.19
2019-02-25T02:26:12.727Z,101419.72
2019-02-25T02:28:42.038Z,101426.14
2019-02-25T02:31:11.325Z,101422.39
2019-02-25T02:33:40.637Z,101427.43
2019-02-25T02:36:11.723Z,101422.75
2019-02-25T02:38:41.150Z,101424.28
2019-02-25T02:41:10.648Z,101426.37
2019-02-25T02:43:39.960Z,101426.13
2019-02-25T02:46:22.549Z,101428.84
2019-02-25T02:48:55.687Z,101428.84
2019-02-25T02:51:25.001Z,101434.42
2019-02-25T02:53:54.307Z,101429.41
2019-02-25T02:56:23.610Z,101430.41
2019-02-25T02:58:52.907Z,101438.31
2019-02-25T03:01:22.219Z,101443.22
2019-02-25T03:03:51.536Z,101443.00
2019-02-25T03:06:20.842Z,101440.09
2019-02-25T03:08:50.149Z,101441.55
2019-02-25T03:11:19.440Z,101443.91
2019-02-25T03:13:48.770Z,101444.41
2019-02-25T03:16:18.077Z,101441.45
2019-02-25T03:18:47.394Z,101440.09
2019-02-25T03:21:16.697Z,101438.02
2019-02-25T03:23:46.009Z,101432.02
2019-02-25T03:26:15.316Z,101432.11
2019-02-25T03:28:44.611Z,101431.99
2019-02-25T03:31:13.932Z,101427.31
2019-02-25T03:33:43.235Z,101432.94
2019-02-25T03:36:12.535Z,101432.12
2019-02-25T03:38:41.839Z,101429.41
2019-02-25T03:41:11.168Z,101429.91
2019-02-25T03:43:40.481Z,101427.75
2019-02-25T03:46:09.787Z,101426.36
2019-02-25T03:51:41.818Z,101430.73
2019-02-25T03:54:11.134Z,101432.78
2019-02-25T03:56:40.449Z,101437.88
2019-02-25T03:59:09.745Z,101435.99
2019-02-25T04:01:39.153Z,101431.61
2019-02-25T04:04:08.466Z,101431.88
2019-02-25T04:06:37.880Z,101434.44
2019-02-25T04:09:19.452Z,101430.33
2019-02-25T04:11:48.763Z,101430.84
2019-02-25T04:14:18.057Z,101427.22
2019-02-25T04:16:47.375Z,101422.44
2019-02-25T04:19:16.701Z,101426.34
2019-02-25T04:21:45.997Z,101421.65
2019-02-25T04:24:15.311Z,101423.63
2019-02-25T04:26:44.630Z,101418.34
2019-02-25T04:29:13.951Z,101416.09
2019-02-25T04:31:43.260Z,101423.66
2019-02-25T04:34:12.741Z,101420.58
2019-02-25T04:36:42.051Z,101424.89
2019-02-25T04:39:11.361Z,101421.58
2019-02-25T04:41:40.661Z,101417.44
2019-02-25T04:44:09.959Z,101419.23
2019-02-25T04:46:39.275Z,101412.22
2019-02-25T04:49:08.595Z,101421.34
2019-02-25T04:51:37.899Z,101425.70
2019-02-25T04:54:07.200Z,101421.58
2019-02-25T04:56:36.505Z,101425.33
2019-02-25T04:59:05.809Z,101428.82
2019-02-25T05:01:35.150Z,101426.11
2019-02-25T05:04:04.446Z,101432.86
2019-02-25T05:06:33.748Z,101423.16
2019-02-25T05:12:06.551Z,101426.74
2019-02-25T05:14:35.872Z,101424.10
2019-02-25T05:17:05.197Z,101428.88
2019-02-25T05:19:34.509Z,101427.59
2019-02-25T05:22:03.824Z,101429.72
2019-02-25T05:24:33.122Z,101435.54
2019-02-25T05:27:02.420Z,101429.79
2019-02-25T05:29:31.745Z,101438.24
2019-02-25T05:32:01.179Z,101435.94
2019-02-25T05:34:30.488Z,101428.78
2019-02-25T05:36:59.828Z,101425.30
2019-02-25T05:39:29.126Z,101424.63
2019-02-25T05:41:58.434Z,101423.43
2019-02-25T05:44:27.751Z,101427.50
2019-02-25T05:46:57.077Z,101433.40
2019-02-25T05:49:26.389Z,101427.09
2019-02-25T05:51:55.686Z,101423.75
2019-02-25T05:54:24.988Z,101428.64
2019-02-25T05:56:54.291Z,101428.45
2019-02-25T05:59:23.599Z,101423.23
2019-02-25T06:01:52.933Z,101428.55
2019-02-25T06:04:22.268Z,101435.28
2019-02-25T06:06:51.560Z,101432.90
2019-02-25T06:09:20.881Z,101435.19
2019-02-25T06:11:50.233Z,101433.39
2019-02-25T06:14:19.536Z,101437.80
2019-02-25T06:16:48.837Z,101435.03
2019-02-25T06:19:18.243Z,101428.06
2019-02-25T06:21:47.550Z,101433.22
2019-02-25T06:24:16.881Z,101434.86
2019-02-25T06:26:46.200Z,101437.70
2019-02-25T06:29:15.517Z,101440.73
2019-02-25T06:31:44.839Z,101441.88
2019-02-25T06:34:14.151Z,101445.66
2019-02-25T06:36:43.470Z,101453.47
2019-02-25T06:39:12.783Z,101456.38
2019-02-25T06:41:42.087Z,101458.84
2019-02-25T06:44:11.398Z,101454.66
2019-02-25T06:46:40.703Z,101446.04
2019-02-25T06:49:10.089Z,101442.05
2019-02-25T06:51:39.405Z,101444.72
2019-02-25T06:54:08.707Z,101441.31
2019-02-25T06:56:38.014Z,101442.30
2019-02-25T06:59:07.367Z,101452.72
2019-02-25T07:01:36.711Z,101449.75
2019-02-25T07:04:25.484Z,101446.66
2019-02-25T07:07:14.253Z,101448.53
2019-02-25T07:10:03.048Z,101454.42
2019-02-25T07:12:51.852Z,101444.63
2019-02-25T07:15:40.646Z,101446.42
2019-02-25T07:18:29.443Z,101442.80
2019-02-25T07:21:18.243Z,101440.03
2019-02-25T07:24:07.017Z,101444.39
2019-02-25T07:26:55.879Z,101436.84
2019-02-25T07:29:44.690Z,101439.31
2019-02-25T07:32:23.693Z,101442.39
2019-02-25T07:35:12.483Z,101433.53
2019-02-25T07:38:01.440Z,101442.11
2019-02-25T07:40:49.667Z,101436.11
2019-02-25T07:43:34.967Z,101431.55
2019-02-25T07:46:23.747Z,101429.70
2019-02-25T07:49:03.778Z,101426.51
2019-02-25T07:51:52.722Z,101428.19
2019-02-25T07:54:41.493Z,101427.06
2019-02-25T07:57:30.323Z,101420.94
2019-02-25T08:00:19.104Z,101420.63
2019-02-25T08:03:07.905Z,101420.44
2019-02-25T08:05:56.687Z,101417.33
2019-02-25T08:08:45.474Z,101415.14
2019-02-25T08:11:39.906Z,101416.87
2019-02-25T08:14:34.340Z,101416.43
2019-02-25T08:17:21.800Z,101411.88
2019-02-25T08:20:16.255Z,101410.23
2019-02-25T08:23:03.945Z,101423.52
2019-02-25T08:25:55.713Z,101416.16
2019-02-25T08:28:40.348Z,101418.52
2019-02-25T08:31:29.797Z,101419.86
2019-02-25T08:34:21.202Z,101412.86
2019-02-25T08:40:35.629Z,101412.28
2019-02-25T08:43:45.862Z,101403.92
2019-02-25T08:46:34.699Z,101399.66
2019-02-25T08:49:23.571Z,101397.19
2019-02-25T08:51:52.912Z,101391.28
2019-02-25T08:54:22.213Z,101390.58
2019-02-25T08:56:51.714Z,101389.08
2019-02-25T08:59:21.091Z,101391.48
2019-02-25T09:01:50.420Z,101400.38
2019-02-25T09:04:19.714Z,101404.99
2019-02-25T09:06:49.027Z,101399.11
2019-02-25T09:09:18.378Z,101400.00
2019-02-25T09:11:47.701Z,101399.53
2019-02-25T09:14:36.247Z,101404.89
2019-02-25T09:17:05.572Z,101389.27
2019-02-25T09:19:34.896Z,101390.70
2019-02-25T09:22:04.448Z,101390.00
2019-02-25T09:24:33.771Z,101391.60
2019-02-25T09:27:03.131Z,101389.12
2019-02-25T09:29:32.445Z,101392.52
2019-02-25T09:32:01.799Z,101390.60
2019-02-25T09:34:31.131Z,101394.34
2019-02-25T09:37:00.659Z,101390.90
2019-02-25T09:39:30.061Z,101403.97
2019-02-25T09:41:59.420Z,101390.31
2019-02-25T09:44:28.775Z,101397.70
2019-02-25T09:46:58.107Z,101400.29
2019-02-25T09:49:27.533Z,101395.51
2019-02-25T09:51:56.978Z,101395.41
2019-02-25T09:54:26.338Z,101384.94
2019-02-25T09:56:55.675Z,101389.95
2019-02-25T09:59:25.012Z,101388.91
2019-02-25T10:01:54.324Z,101388.27
2019-02-25T10:04:23.642Z,101391.09
2019-02-25T10:07:02.003Z,101393.26
2019-02-25T10:09:42.170Z,101382.69
2019-02-25T10:12:11.497Z,101377.53
2019-02-25T10:14:40.838Z,101373.15
2019-02-25T10:17:10.138Z,101366.38
2019-02-25T10:19:39.445Z,101367.75
2019-02-25T10:22:08.765Z,101363.91
2019-02-25T10:24:39.843Z,101367.08
2019-02-25T10:27:27.320Z,101364.91
2019-02-25T10:29:56.650Z,101351.73
2019-02-25T10:32:27.918Z,101353.34
2019-02-25T10:35:15.273Z,101350.51
2019-02-25T10:37:44.562Z,101351.26
2019-02-25T10:40:15.406Z,101337.83
2019-02-25T10:43:03.578Z,101342.52
2019-02-25T10:45:34.475Z,101341.57
2019-02-25T10:48:23.617Z,101331.92
2019-02-25T10:51:12.003Z,101331.20
2019-02-25T10:54:00.666Z,101322.65
2019-02-25T10:56:55.915Z,101315.30
2019-02-25T10:59:43.562Z,101309.78
2019-02-25T11:02:13.714Z,101299.02
2019-02-25T11:05:02.931Z,101304.69
2019-02-25T11:07:33.166Z,101303.58
2019-02-25T11:10:24.002Z,101297.16
2019-02-25T11:12:55.315Z,101296.69
2019-02-25T11:15:44.586Z,101291.66
2019-02-25T11:18:31.982Z,101286.95
2019-02-25T11:21:03.567Z,101285.30
2019-02-25T11:23:32.536Z,101275.90
2019-02-25T11:26:02.248Z,101266.48
2019-02-25T11:28:32.261Z,101259.56
2019-02-25T11:31:24.045Z,101252.69
2019-02-25T11:34:10.197Z,101248.53
2019-02-25T11:36:39.518Z,101240.13
2019-02-25T11:39:09.530Z,101238.70
2019-02-25T11:41:40.993Z,101235.31
2019-02-25T11:44:10.306Z,101228.53
2019-02-25T11:46:39.911Z,101219.48
2019-02-25T11:49:09.231Z,101222.33
2019-02-25T11:51:38.542Z,101218.07
2019-02-25T11:54:07.861Z,101222.37
2019-02-25T11:56:37.287Z,101218.80
2019-02-25T11:59:06.629Z,101215.79
2019-02-25T12:01:35.953Z,101213.20
2019-02-25T12:04:05.269Z,101212.13
2019-02-25T12:06:34.626Z,101206.37
2019-02-25T12:09:04.544Z,101202.61
2019-02-25T12:11:33.850Z,101196.64
2019-02-25T12:14:03.279Z,101201.26
2019-02-25T12:16:32.707Z,101199.37
2019-02-25T12:19:02.045Z,101189.06
2019-02-25T12:21:31.357Z,101190.36
2019-02-25T12:24:00.663Z,101180.84
2019-02-25T12:26:29.984Z,101179.55
2019-02-25T12:28:59.310Z,101177.69
2019-02-25T12:31:28.740Z,101182.77
2019-02-25T12:33:58.030Z,101177.36
2019-02-25T12:36:27.364Z,101177.83
2019-02-25T12:38:56.679Z,101171.88
2019-02-25T12:41:27.300Z,101172.00
2019-02-25T12:43:56.803Z,101168.32
2019-02-25T12:46:26.122Z,101169.98
2019-02-25T12:48:55.547Z,101164.02
2019-02-25T12:51:24.847Z,101153.92
2019-02-25T12:53:54.159Z,101158.78
2019-02-25T12:56:23.561Z,101157.12
2019-02-25T12:58:52.884Z,101155.15
2019-02-25T13:01:22.189Z,101147.65
2019-02-25T13:03:51.552Z,101148.98
2019-02-25T13:06:20.864Z,101143.23
2019-02-25T13:08:50.192Z,101136.44
2019-02-25T13:11:19.503Z,101136.49
2019-02-25T13:13:48.820Z,101131.73
2019-02-25T13:16:18.133Z,101137.98
2019-02-25T13:18:47.519Z,101126.27
2019-02-25T13:21:16.839Z,101136.36
2019-02-25T13:23:46.152Z,101136.88
2019-02-25T13:26:15.457Z,101128.27
2019-02-25T13:28:44.772Z,101136.13
2019-02-25T13:31:14.094Z,101133.20
2019-02-25T13:33:43.409Z,101127.15
2019-02-25T13:36:12.850Z,101116.54
2019-02-25T13:38:42.144Z,101116.96
2019-02-25T13:41:11.459Z,101110.68
2019-02-25T13:43:40.816Z,101113.05
2019-02-25T13:46:10.179Z,101106.05
2019-02-25T13:48:59.433Z,101109.29
2019-02-25T13:51:28.762Z,101098.09
2019-02-25T13:53:58.085Z,101092.62
2019-02-25T13:56:27.474Z,101090.53
2019-02-25T13:58:56.835Z,101084.81
2019-02-25T14:01:26.147Z,101083.97
2019-02-25T14:03:55.551Z,101081.34
2019-02-25T14:06:24.882Z,101076.11
2019-02-25T14:08:54.196Z,101070.25
2019-02-25T14:11:23.611Z,101079.74
2019-02-25T14:13:52.914Z,101075.31
2019-02-25T14:16:22.274Z,101070.13
2019-02-25T14:18:51.614Z,101057.67
2019-02-25T14:24:24.209Z,101054.63
2019-02-25T14:26:54.501Z,101058.05
2019-02-25T14:29:44.629Z,101057.09
2019-02-25T14:32:31.944Z,101046.31
2019-02-25T14:35:01.267Z,101042.66
2019-02-25T14:37:30.579Z,101039.12
2019-02-25T14:40:02.882Z,101045.97
2019-02-25T14:42:33.519Z,101041.36
2019-02-25T14:45:21.863Z,101036.17
2019-02-25T14:47:55.392Z,101036.06
2019-02-25T14:50:23.500Z,101036.52
2019-02-25T14:52:52.910Z,101045.09
2019-02-25T14:55:22.414Z,101035.69
2019-02-25T14:57:51.740Z,101030.08
2019-02-25T15:00:40.638Z,101026.54
2019-02-25T15:03:10.067Z,101028.82
2019-02-25T15:05:39.488Z,101022.34
2019-02-25T15:08:09.101Z,101023.95
2019-02-25T15:10:40.553Z,101013.54
2019-02-25T15:15:54.062Z,101015.75
2019-02-25T15:18:25.186Z,101009.31
2019-02-25T15:21:15.693Z,101014.45
2019-02-25T15:24:04.009Z,101018.45
2019-02-25T15:26:51.114Z,101026.04
2019-02-25T15:29:20.443Z,101029.89
2019-02-25T15:31:50.577Z,101031.60
2019-02-25T15:34:39.012Z,101022.91
2019-02-25T15:37:09.610Z,101015.75
2019-02-25T15:39:57.544Z,101020.02
2019-02-25T15:42:28.008Z,101010.33
2019-02-25T15:44:58.081Z,101015.52
2019-02-25T15:47:27.519Z,101016.85
2019-02-25T15:49:59.602Z,101011.62
2019-02-25T15:52:46.173Z,101008.73
2019-02-25T15:55:17.340Z,101008.73
2019-02-25T15:57:47.328Z,101012.24
2019-02-25T16:03:00.696Z,101005.56
2019-02-25T16:08:33.724Z,101007.28
2019-02-25T16:11:03.189Z,100991.39
2019-02-25T16:16:35.509Z,100985.72
2019-02-25T16:19:05.977Z,100986.97
2019-02-25T16:21:54.680Z,100981.34
2019-02-25T16:24:25.637Z,100980.38
2019-02-25T16:26:56.256Z,100983.84
2019-02-25T16:29:44.170Z,100980.79
2019-02-25T16:32:14.877Z,100984.27
2019-02-25T16:35:04.637Z,100982.08
2019-02-25T16:37:53.077Z,100989.40
2019-02-25T16:40:41.252Z,100979.50
2019-02-25T16:43:12.654Z,100986.76
2019-02-25T16:46:02.075Z,100978.63
2019-02-25T16:48:51.090Z,100980.30
2019-02-25T16:51:38.357Z,100978.12
2019-02-25T16:54:11.014Z,100985.52
2019-02-25T16:56:56.877Z,100979.41
2019-02-25T16:59:26.308Z,100978.16
2019-02-25T17:01:57.886Z,100983.34
2019-02-25T17:04:44.934Z,100983.30
2019-02-25T17:07:15.912Z,100985.55
2019-02-25T17:10:05.809Z,100978.12
2019-02-25T17:12:35.169Z,100978.07
2019-02-25T17:15:17.669Z,100981.95
2019-02-25T17:17:47.134Z,100982.42
2019-02-25T17:20:16.578Z,100981.16
2019-02-25T17:23:09.390Z,100972.34
2019-02-25T17:25:55.047Z,100974.11
2019-02-25T17:28:25.037Z,100979.95
2019-02-25T17:31:14.378Z,100973.59
2019-02-25T17:34:02.997Z,100969.80
2019-02-25T17:36:32.295Z,100959.53
2019-02-25T17:39:01.702Z,100969.09
2019-02-25T17:41:31.025Z,100966.84
2019-02-25T17:44:01.477Z,100964.25
2019-02-25T17:46:49.609Z,100964.62
2019-02-25T17:49:19.262Z,100949.13
2019-02-25T17:52:08.191Z,100950.80
2019-02-25T17:54:38.152Z,100946.45
2019-02-25T17:57:27.721Z,100946.38
2019-02-25T18:03:21.681Z,100934.72
2019-02-25T18:06:09.595Z,100931.25
2019-02-25T18:08:39.494Z,100927.28
2019-02-25T18:11:28.218Z,100925.61
2019-02-25T18:13:57.922Z,100917.14
2019-02-25T18:16:48.836Z,100915.08
2019-02-25T18:19:18.679Z,100914.52
2019-02-25T18:22:07.171Z,100907.41
2019-02-25T18:24:36.696Z,100900.02
2019-02-25T18:30:01.339Z,100898.13
2019-02-25T18:35:38.217Z,100891.37
2019-02-25T18:38:25.334Z,100894.05
2019-02-25T18:41:13.403Z,100895.77
2019-02-25T18:43:43.306Z,100885.78
2019-02-25T18:46:32.066Z,100891.37
2019-02-25T18:49:02.989Z,100894.00
2019-02-25T18:51:50.868Z,100889.16
2019-02-25T18:54:21.252Z,100888.28
2019-02-25T18:57:09.409Z,100877.18
2019-02-25T18:59:38.953Z,100880.05
2019-02-25T19:02:10.221Z,100873.77
2019-02-25T19:04:59.429Z,100869.96
2019-02-25T19:07:30.986Z,100871.21
2019-02-25T19:10:20.099Z,100867.33
2019-02-25T19:13:07.883Z,100865.24
2019-02-25T19:15:37.419Z,100852.63
2019-02-25T19:18:08.934Z,100856.56
2019-02-25T19:20:56.454Z,100851.77
2019-02-25T19:23:25.881Z,100851.08
2019-02-25T19:25:55.523Z,100844.16
2019-02-25T19:28:26.130Z,100837.98
2019-02-25T19:31:14.080Z,100837.95
2019-02-25T19:33:43.394Z,100828.05
2019-02-25T19:36:13.103Z,100828.43
2019-02-25T19:38:44.137Z,100825.00
2019-02-25T19:41:31.725Z,100821.08
2019-02-25T19:44:01.982Z,100815.49
2019-02-25T19:46:51.217Z,100815.64
2019-02-25T19:49:41.403Z,100807.45
2019-02-25T19:52:30.838Z,100803.92
2019-02-25T19:55:20.509Z,100785.34
2019-02-25T19:58:07.352Z,100782.61
2019-02-25T20:00:36.675Z,100783.55
2019-02-25T20:03:06.499Z,100784.28
2019-02-25T20:05:56.418Z,100782.98
2019-02-25T20:08:46.906Z,100781.47
2019-02-25T20:11:16.025Z,100779.30
2019-02-25T20:13:45.337Z,100775.83
2019-02-25T20:16:34.595Z,100779.40
2019-02-25T20:19:04.721Z,100775.90
2019-02-25T20:21:54.767Z,100772.05
2019-02-25T20:24:46.013Z,100766.97
2019-02-25T20:27:31.753Z,100753.97
2019-02-25T20:30:03.150Z,100744.52
2019-02-25T20:32:34.029Z,100733.38
2019-02-25T20:38:06.290Z,100726.95
2019-02-25T20:40:35.683Z,100730.84
2019-02-25T20:43:05.103Z,100727.41
2019-02-25T20:45:35.433Z,100726.51
2019-02-25T20:48:23.645Z,100725.29
2019-02-25T20:50:52.960Z,100722.72
2019-02-25T20:53:22.982Z,100724.02
2019-02-25T20:56:11.466Z,100717.06
2019-02-25T20:58:42.558Z,100708.00
2019-02-25T21:01:30.101Z,100704.96
2019-02-25T21:03:59.421Z,100706.70
2019-02-25T21:06:28.733Z,100702.38
2019-02-25T21:08:58.057Z,100705.03
2019-02-25T21:11:27.369Z,100698.55
2019-02-25T21:13:56.686Z,100697.31
2019-02-25T21:16:26.750Z,100686.86
2019-02-25T21:19:17.589Z,100686.88
2019-02-25T21:22:06.203Z,100683.78
2019-02-25T21:24:55.795Z,100680.28
2019-02-25T21:27:42.983Z,100678.62
2019-02-25T21:30:14.017Z,100664.42
2019-02-25T21:32:45.652Z,100672.12
2019-02-25T21:35:14.762Z,100671.22
2019-02-25T21:37:46.084Z,100661.67
2019-02-25T21:40:33.306Z,100653.95
2019-02-25T21:43:02.719Z,100646.61
2019-02-25T21:45:32.495Z,100640.11
2019-02-25T21:48:25.097Z,100638.42
2019-02-25T21:50:52.555Z,100641.50
2019-02-25T21:53:21.864Z,100637.06
2019-02-25T21:55:53.511Z,100629.33
2019-02-25T21:58:42.372Z,100628.09
2019-02-25T22:01:30.042Z,100624.16
2019-02-25T22:04:20.377Z,100617.34
2019-02-25T22:06:51.273Z,100623.77
2019-02-25T22:09:43.147Z,100629.78
2019-02-25T22:12:10.409Z,100623.41
2019-02-25T22:14:41.226Z,100616.03
2019-02-25T22:17:12.810Z,100625.07
2019-02-25T22:20:00.251Z,100620.72
2019-02-25T22:22:49.497Z,100628.03
2019-02-25T22:25:38.542Z,100631.56
2019-02-25T22:28:09.913Z,100628.56
2019-02-25T22:30:57.166Z,100623.37
2019-02-25T22:33:27.825Z,100620.79
2019-02-25T22:36:15.687Z,100616.97
2019-02-25T22:38:45.009Z,100623.87
2019-02-25T22:41:16.183Z,100625.55
2019-02-25T22:44:04.212Z,100619.95
2019-02-25T22:46:52.792Z,100622.09
2019-02-25T22:49:24.088Z,100621.23
2019-02-25T22:52:11.309Z,100626.02
2019-02-25T22:54:41.760Z,100631.50
2019-02-25T22:57:29.828Z,100623.31
2019-02-25T22:59:59.134Z,100623.76
2019-02-25T23:02:28.445Z,100619.35
2019-02-25T23:04:57.755Z,100618.12
2019-02-25T23:07:27.086Z,100615.92
2019-02-25T23:09:56.400Z,100617.66
2019-02-25T23:12:28.418Z,100618.12
2019-02-25T23:15:14.929Z,100615.14
2019-02-25T23:17:44.885Z,100607.70
2019-02-25T23:20:15.490Z,100603.40
2019-02-25T23:22:44.808Z,100604.73
2019-02-25T23:25:14.114Z,100606.03
2019-02-25T23:27:43.433Z,100601.69
2019-02-25T23:30:12.757Z,100609.03
2019-02-25T23:32:42.183Z,100605.17
2019-02-25T23:35:13.799Z,100599.95
2019-02-25T23:38:00.973Z,100598.23
2019-02-25T23:40:33.333Z,100587.44
2019-02-25T23:43:19.521Z,100590.86
2019-02-25T23:45:48.843Z,100594.80
2019-02-25T23:48:18.154Z,100596.95
2019-02-25T23:50:48.095Z,100601.26
2019-02-25T23:53:36.654Z,100602.53
2019-02-25T23:56:05.961Z,100609.89
2019-02-25T23:58:38.405Z,100608.62
